sensor_id;sensor_type;location;lat;lon;timestamp;pressure;altitude;pressure_sealevel;temperature;humidity
71476;BME280;59286;59.274;17.974;2023-04-07T00:00:13;102281.94;;;1.49;93.39
71476;BME280;59286;59.274;17.974;2023-04-07T00:02:40;102289.34;;;1.58;93.52
71476;BME280;59286;59.274;17.974;2023-04-07T00:05:06;102282.34;;;1.52;93.57
71476;BME280;59286;59.274;17.974;2023-04-07T00:07:32;102271.63;;;1.49;93.35
71476;BME280;59286;59.274;17.974;2023-04-07T00:09:57;102267.81;;;1.45;93.86
71476;BME280;59286;59.274;17.974;2023-04-07T00:12:22;102273.00;;;1.51;93.82
71476;BME280;59286;59.274;17.974;2023-04-07T00:14:48;102251.50;;;1.38;94.17
71476;BME280;59286;59.274;17.974;2023-04-07T00:17:13;102271.63;;;1.49;93.60
71476;BME280;59286;59.274;17.974;2023-04-07T00:19:38;102257.28;;;1.46;93.98
71476;BME280;59286;59.274;17.974;2023-04-07T00:22:04;102261.84;;;1.44;93.96
71476;BME280;59286;59.274;17.974;2023-04-07T00:24:29;102276.13;;;1.40;94.53
71476;BME280;59286;59.274;17.974;2023-04-07T00:26:54;102268.03;;;1.43;94.76
71476;BME280;59286;59.274;17.974;2023-04-07T00:29:21;102269.00;;;1.42;94.50
71476;BME280;59286;59.274;17.974;2023-04-07T00:31:46;102284.94;;;1.52;94.26
71476;BME280;59286;59.274;17.974;2023-04-07T00:34:11;102285.31;;;1.49;94.07
71476;BME280;59286;59.274;17.974;2023-04-07T00:36:36;102283.31;;;1.51;94.19
71476;BME280;59286;59.274;17.974;2023-04-07T00:39:02;102275.53;;;1.38;94.29
71476;BME280;59286;59.274;17.974;2023-04-07T00:41:27;102274.16;;;1.42;94.49
71476;BME280;59286;59.274;17.974;2023-04-07T00:43:52;102285.50;;;1.41;94.57
71476;BME280;59286;59.274;17.974;2023-04-07T00:46:21;102268.38;;;1.34;94.70
71476;BME280;59286;59.274;17.974;2023-04-07T00:48:46;102275.34;;;1.40;94.80
71476;BME280;59286;59.274;17.974;2023-04-07T00:51:12;102280.53;;;1.40;94.67
71476;BME280;59286;59.274;17.974;2023-04-07T00:53:38;102276.94;;;1.41;94.83
71476;BME280;59286;59.274;17.974;2023-04-07T00:56:03;102273.78;;;1.45;94.76
71476;BME280;59286;59.274;17.974;2023-04-07T00:58:29;102261.03;;;1.37;94.62
71476;BME280;59286;59.274;17.974;2023-04-07T01:01:06;102270.59;;;1.43;94.89
71476;BME280;59286;59.274;17.974;2023-04-07T01:03:38;102266.59;;;1.41;94.87
71476;BME280;59286;59.274;17.974;2023-04-07T01:06:13;102257.44;;;1.38;94.82
71476;BME280;59286;59.274;17.974;2023-04-07T01:08:53;102259.41;;;1.36;95.17
71476;BME280;59286;59.274;17.974;2023-04-07T01:11:29;102269.75;;;1.36;95.25
71476;BME280;59286;59.274;17.974;2023-04-07T01:13:57;102264.19;;;1.33;95.60
71476;BME280;59286;59.274;17.974;2023-04-07T01:16:30;102264.97;;;1.33;95.68
71476;BME280;59286;59.274;17.974;2023-04-07T01:21:45;102267.38;;;1.35;95.67
71476;BME280;59286;59.274;17.974;2023-04-07T01:26:50;102258.25;;;1.32;95.71
71476;BME280;59286;59.274;17.974;2023-04-07T01:29:33;102254.66;;;1.33;96.35
71476;BME280;59286;59.274;17.974;2023-04-07T01:32:03;102259.25;;;1.38;95.75
71476;BME280;59286;59.274;17.974;2023-04-07T01:34:31;102260.03;;;1.38;96.31
71476;BME280;59286;59.274;17.974;2023-04-07T01:36:58;102255.03;;;1.30;96.31
71476;BME280;59286;59.274;17.974;2023-04-07T01:39:26;102253.06;;;1.32;96.42
71476;BME280;59286;59.274;17.974;2023-04-07T01:41:53;102250.66;;;1.31;96.58
71476;BME280;59286;59.274;17.974;2023-04-07T01:44:19;102239.34;;;1.32;96.58
71476;BME280;59286;59.274;17.974;2023-04-07T01:46:46;102243.09;;;1.29;96.58
71476;BME280;59286;59.274;17.974;2023-04-07T01:49:12;102249.69;;;1.32;96.38
71476;BME280;59286;59.274;17.974;2023-04-07T01:51:39;102246.88;;;1.27;96.36
71476;BME280;59286;59.274;17.974;2023-04-07T01:54:05;102253.44;;;1.29;96.72
71476;BME280;59286;59.274;17.974;2023-04-07T01:56:32;102251.66;;;1.30;97.34
71476;BME280;59286;59.274;17.974;2023-04-07T01:58:57;102224.97;;;1.16;97.68
71476;BME280;59286;59.274;17.974;2023-04-07T02:01:23;102244.06;;;1.22;97.85
71476;BME280;59286;59.274;17.974;2023-04-07T02:03:55;102244.03;;;1.15;98.34
71476;BME280;59286;59.274;17.974;2023-04-07T02:06:33;102256.56;;;1.18;98.75
71476;BME280;59286;59.274;17.974;2023-04-07T02:09:09;102251.63;;;1.23;98.15
71476;BME280;59286;59.274;17.974;2023-04-07T02:11:36;102256.41;;;1.26;98.40
71476;BME280;59286;59.274;17.974;2023-04-07T02:14:04;102254.84;;;1.32;97.99
71476;BME280;59286;59.274;17.974;2023-04-07T02:16:31;102264.97;;;1.33;97.88
71476;BME280;59286;59.274;17.974;2023-04-07T02:18:57;102258.66;;;1.36;97.94
71476;BME280;59286;59.274;17.974;2023-04-07T02:21:24;102259.00;;;1.33;98.10
71476;BME280;59286;59.274;17.974;2023-04-07T02:23:51;102259.22;;;1.31;98.16
71476;BME280;59286;59.274;17.974;2023-04-07T02:26:16;102250.25;;;1.27;98.41
71476;BME280;59286;59.274;17.974;2023-04-07T02:28:41;102252.22;;;1.25;98.74
71476;BME280;59286;59.274;17.974;2023-04-07T02:31:07;102254.84;;;1.32;98.30
71476;BME280;59286;59.274;17.974;2023-04-07T02:33:32;102252.25;;;1.32;97.99
71476;BME280;59286;59.274;17.974;2023-04-07T02:35:57;102264.00;;;1.34;98.56
71476;BME280;59286;59.274;17.974;2023-04-07T02:38:23;102262.59;;;1.38;98.08
71476;BME280;59286;59.274;17.974;2023-04-07T02:40:48;102257.44;;;1.32;98.71
71476;BME280;59286;59.274;17.974;2023-04-07T02:43:13;102259.41;;;1.30;98.70
71476;BME280;59286;59.274;17.974;2023-04-07T02:45:39;102262.81;;;1.37;98.88
71476;BME280;59286;59.274;17.974;2023-04-07T02:48:04;102256.25;;;1.34;98.83
71476;BME280;59286;59.274;17.974;2023-04-07T02:50:30;102261.44;;;1.34;99.05
71476;BME280;59286;59.274;17.974;2023-04-07T02:52:55;102264.38;;;1.31;99.53
71476;BME280;59286;59.274;17.974;2023-04-07T02:55:20;102268.31;;;1.27;99.94
71476;BME280;59286;59.274;17.974;2023-04-07T02:57:46;102257.78;;;1.22;99.74
71476;BME280;59286;59.274;17.974;2023-04-07T03:00:11;102253.63;;;1.28;100.00
71476;BME280;59286;59.274;17.974;2023-04-07T03:02:37;102248.47;;;1.28;100.00
71476;BME280;59286;59.274;17.974;2023-04-07T03:05:03;102256.84;;;1.36;99.66
71476;BME280;59286;59.274;17.974;2023-04-07T03:07:28;102249.47;;;1.33;100.00
71476;BME280;59286;59.274;17.974;2023-04-07T03:09:56;102259.41;;;1.30;100.00
71476;BME280;59286;59.274;17.974;2023-04-07T03:12:21;102239.69;;;1.16;100.00
71476;BME280;59286;59.274;17.974;2023-04-07T03:14:46;102260.16;;;1.24;100.00
71476;BME280;59286;59.274;17.974;2023-04-07T03:17:12;102269.31;;;1.26;100.00
71476;BME280;59286;59.274;17.974;2023-04-07T03:19:37;102265.72;;;1.21;100.00
71476;BME280;59286;59.274;17.974;2023-04-07T03:22:02;102260.75;;;1.19;100.00
71476;BME280;59286;59.274;17.974;2023-04-07T03:24:28;102247.00;;;1.12;100.00
71476;BME280;59286;59.274;17.974;2023-04-07T03:26:53;102266.94;;;1.25;100.00
71476;BME280;59286;59.274;17.974;2023-04-07T03:29:18;102263.56;;;1.31;100.00
71476;BME280;59286;59.274;17.974;2023-04-07T03:31:44;102273.72;;;1.32;100.00
71476;BME280;59286;59.274;17.974;2023-04-07T03:34:09;102268.16;;;1.35;99.83
71476;BME280;59286;59.274;17.974;2023-04-07T03:36:35;102268.78;;;1.37;99.94
71476;BME280;59286;59.274;17.974;2023-04-07T03:39:00;102279.13;;;1.37;99.81
71476;BME280;59286;59.274;17.974;2023-04-07T03:41:25;102274.50;;;1.26;100.00
71476;BME280;59286;59.274;17.974;2023-04-07T03:43:51;102269.53;;;1.31;99.94
71476;BME280;59286;59.274;17.974;2023-04-07T03:46:18;102278.91;;;1.39;100.00
71476;BME280;59286;59.274;17.974;2023-04-07T03:48:44;102277.09;;;1.33;100.00
71476;BME280;59286;59.274;17.974;2023-04-07T03:51:10;102276.13;;;1.40;99.78
71476;BME280;59286;59.274;17.974;2023-04-07T03:53:36;102269.94;;;1.35;99.86
71476;BME280;59286;59.274;17.974;2023-04-07T03:56:01;102268.16;;;1.35;100.00
71476;BME280;59286;59.274;17.974;2023-04-07T03:58:27;102272.13;;;1.31;100.00
71476;BME280;59286;59.274;17.974;2023-04-07T04:00:52;102271.72;;;1.28;100.00
71476;BME280;59286;59.274;17.974;2023-04-07T04:03:17;102280.88;;;1.30;100.00
71476;BME280;59286;59.274;17.974;2023-04-07T04:05:42;102265.38;;;1.30;100.00
71476;BME280;59286;59.274;17.974;2023-04-07T04:08:08;102277.91;;;1.33;100.00
71476;BME280;59286;59.274;17.974;2023-04-07T04:10:33;102279.72;;;1.39;100.00
71476;BME280;59286;59.274;17.974;2023-04-07T04:12:58;102282.66;;;1.36;100.00
71476;BME280;59286;59.274;17.974;2023-04-07T04:15:25;102276.06;;;1.27;100.00
71476;BME280;59286;59.274;17.974;2023-04-07T04:17:50;102283.44;;;1.30;100.00
71476;BME280;59286;59.274;17.974;2023-04-07T04:20:15;102290.41;;;1.36;100.00
71476;BME280;59286;59.274;17.974;2023-04-07T04:22:41;102293.78;;;1.30;100.00
71476;BME280;59286;59.274;17.974;2023-04-07T04:25:06;102298.56;;;1.33;100.00
71476;BME280;59286;59.274;17.974;2023-04-07T04:27:32;102299.97;;;1.36;100.00
71476;BME280;59286;59.274;17.974;2023-04-07T04:29:57;102300.13;;;1.28;100.00
71476;BME280;59286;59.274;17.974;2023-04-07T04:32:22;102293.19;;;1.28;100.00
71476;BME280;59286;59.274;17.974;2023-04-07T04:34:48;102294.94;;;1.21;100.00
71476;BME280;59286;59.274;17.974;2023-04-07T04:37:13;102306.31;;;1.33;100.00
71476;BME280;59286;59.274;17.974;2023-04-07T04:39:38;102312.09;;;1.35;100.00
71476;BME280;59286;59.274;17.974;2023-04-07T04:42:04;102313.09;;;1.34;100.00
71476;BME280;59286;59.274;17.974;2023-04-07T04:44:30;102315.84;;;1.33;100.00
71476;BME280;59286;59.274;17.974;2023-04-07T04:46:55;102297.50;;;1.21;100.00
71476;BME280;59286;59.274;17.974;2023-04-07T04:49:21;102315.06;;;1.32;100.00
71476;BME280;59286;59.274;17.974;2023-04-07T04:51:46;102306.25;;;1.20;100.00
71476;BME280;59286;59.274;17.974;2023-04-07T04:54:12;102319.81;;;1.29;100.00
71476;BME280;59286;59.274;17.974;2023-04-07T04:56:37;102295.28;;;1.18;100.00
71476;BME280;59286;59.274;17.974;2023-04-07T04:59:03;102323.78;;;1.31;100.00
71476;BME280;59286;59.274;17.974;2023-04-07T05:01:29;102314.03;;;1.27;100.00
71476;BME280;59286;59.274;17.974;2023-04-07T05:03:54;102312.84;;;1.29;100.00
71476;BME280;59286;59.274;17.974;2023-04-07T05:06:20;102315.06;;;1.39;100.00
71476;BME280;59286;59.274;17.974;2023-04-07T05:08:45;102326.56;;;1.36;100.00
71476;BME280;59286;59.274;17.974;2023-04-07T05:11:11;102333.34;;;1.37;100.00
71476;BME280;59286;59.274;17.974;2023-04-07T05:13:36;102322.03;;;1.38;100.00
71476;BME280;59286;59.274;17.974;2023-04-07T05:16:02;102321.06;;;1.46;100.00
71476;BME280;59286;59.274;17.974;2023-04-07T05:18:27;102335.78;;;1.45;100.00
71476;BME280;59286;59.274;17.974;2023-04-07T05:20:52;102332.00;;;1.41;100.00
71476;BME280;59286;59.274;17.974;2023-04-07T05:23:18;102332.00;;;1.48;100.00
71476;BME280;59286;59.274;17.974;2023-04-07T05:25:43;102333.41;;;1.50;100.00
71476;BME280;59286;59.274;17.974;2023-04-07T05:28:08;102347.69;;;1.46;100.00
71476;BME280;59286;59.274;17.974;2023-04-07T05:30:34;102345.47;;;1.37;100.00
71476;BME280;59286;59.274;17.974;2023-04-07T05:32:59;102337.91;;;1.35;100.00
71476;BME280;59286;59.274;17.974;2023-04-07T05:35:25;102351.44;;;1.37;100.00
71476;BME280;59286;59.274;17.974;2023-04-07T05:37:50;102340.88;;;1.32;100.00
71476;BME280;59286;59.274;17.974;2023-04-07T05:40:15;102361.44;;;1.47;100.00
71476;BME280;59286;59.274;17.974;2023-04-07T05:42:41;102352.06;;;1.46;100.00
71476;BME280;59286;59.274;17.974;2023-04-07T05:45:08;102353.28;;;1.50;100.00
71476;BME280;59286;59.274;17.974;2023-04-07T05:47:34;102347.50;;;1.41;100.00
71476;BME280;59286;59.274;17.974;2023-04-07T05:50:00;102352.41;;;1.36;100.00
71476;BME280;59286;59.274;17.974;2023-04-07T05:52:25;102351.84;;;1.41;100.00
71476;BME280;59286;59.274;17.974;2023-04-07T05:54:50;102368.16;;;1.41;100.00
71476;BME280;59286;59.274;17.974;2023-04-07T05:57:16;102371.72;;;1.40;100.00
71476;BME280;59286;59.274;17.974;2023-04-07T05:59:41;102364.22;;;1.45;100.00
71476;BME280;59286;59.274;17.974;2023-04-07T06:02:06;102363.97;;;1.40;100.00
71476;BME280;59286;59.274;17.974;2023-04-07T06:04:32;102367.22;;;1.55;100.00
71476;BME280;59286;59.274;17.974;2023-04-07T06:07:02;102369.59;;;1.50;100.00
71476;BME280;59286;59.274;17.974;2023-04-07T06:09:28;102373.59;;;1.53;100.00
71476;BME280;59286;59.274;17.974;2023-04-07T06:11:53;102372.19;;;1.50;100.00
71476;BME280;59286;59.274;17.974;2023-04-07T06:14:19;102360.81;;;1.45;100.00
71476;BME280;59286;59.274;17.974;2023-04-07T06:16:44;102370.34;;;1.44;100.00
71476;BME280;59286;59.274;17.974;2023-04-07T06:19:10;102363.97;;;1.40;100.00
71476;BME280;59286;59.274;17.974;2023-04-07T06:21:35;102356.41;;;1.39;100.00
71476;BME280;59286;59.274;17.974;2023-04-07T06:24:01;102371.16;;;1.45;100.00
71476;BME280;59286;59.274;17.974;2023-04-07T06:26:26;102369.59;;;1.50;100.00
71476;BME280;59286;59.274;17.974;2023-04-07T06:28:52;102373.94;;;1.50;100.00
71476;BME280;59286;59.274;17.974;2023-04-07T06:31:18;102372.78;;;1.52;100.00
71476;BME280;59286;59.274;17.974;2023-04-07T06:33:44;102367.63;;;1.52;100.00
71476;BME280;59286;59.274;17.974;2023-04-07T06:36:10;102370.81;;;1.54;100.00
71476;BME280;59286;59.274;17.974;2023-04-07T06:38:35;102381.22;;;1.67;100.00
71476;BME280;59286;59.274;17.974;2023-04-07T06:41:00;102375.66;;;1.70;100.00
71476;BME280;59286;59.274;17.974;2023-04-07T06:43:26;102384.81;;;1.73;99.67
71476;BME280;59286;59.274;17.974;2023-04-07T06:45:51;102381.63;;;1.77;99.40
71476;BME280;59286;59.274;17.974;2023-04-07T06:48:16;102389.28;;;1.92;98.92
71476;BME280;59286;59.274;17.974;2023-04-07T06:50:45;102386.91;;;1.97;98.05
71476;BME280;59286;59.274;17.974;2023-04-07T06:53:11;102384.47;;;1.89;98.03
71476;BME280;59286;59.274;17.974;2023-04-07T06:55:36;102390.09;;;1.99;97.75
71476;BME280;59286;59.274;17.974;2023-04-07T06:58:01;102382.53;;;1.98;97.47
71476;BME280;59286;59.274;17.974;2023-04-07T07:00:27;102378.13;;;1.91;97.44
71476;BME280;59286;59.274;17.974;2023-04-07T07:02:55;102388.47;;;1.91;97.53
71476;BME280;59286;59.274;17.974;2023-04-07T07:05:20;102394.88;;;1.95;97.15
71476;BME280;59286;59.274;17.974;2023-04-07T07:07:47;102382.09;;;1.87;97.10
71476;BME280;59286;59.274;17.974;2023-04-07T07:10:12;102383.69;;;1.88;97.37
71476;BME280;59286;59.274;17.974;2023-04-07T07:12:38;102393.09;;;2.03;97.00
71476;BME280;59286;59.274;17.974;2023-04-07T07:15:04;102389.69;;;2.02;96.49
71476;BME280;59286;59.274;17.974;2023-04-07T07:17:29;102383.72;;;1.95;96.60
71476;BME280;59286;59.274;17.974;2023-04-07T07:19:55;102399.03;;;1.96;96.72
71476;BME280;59286;59.274;17.974;2023-04-07T07:22:20;102397.22;;;1.90;96.88
71476;BME280;59286;59.274;17.974;2023-04-07T07:24:45;102401.81;;;1.95;96.69
71476;BME280;59286;59.274;17.974;2023-04-07T07:27:11;102397.81;;;1.92;95.86
71476;BME280;59286;59.274;17.974;2023-04-07T07:29:36;102396.44;;;1.90;96.04
71476;BME280;59286;59.274;17.974;2023-04-07T07:32:01;102409.22;;;2.05;95.47
71476;BME280;59286;59.274;17.974;2023-04-07T07:34:28;102407.44;;;2.12;95.22
71476;BME280;59286;59.274;17.974;2023-04-07T07:36:53;102415.03;;;2.20;95.03
71476;BME280;59286;59.274;17.974;2023-04-07T07:39:19;102403.09;;;2.12;94.57
71476;BME280;59286;59.274;17.974;2023-04-07T07:41:44;102406.88;;;2.16;94.74
71476;BME280;59286;59.274;17.974;2023-04-07T07:44:10;102420.63;;;2.23;94.54
71476;BME280;59286;59.274;17.974;2023-04-07T07:46:36;102416.84;;;2.26;93.85
71476;BME280;59286;59.274;17.974;2023-04-07T07:49:01;102417.63;;;2.20;94.45
71476;BME280;59286;59.274;17.974;2023-04-07T07:51:26;102417.03;;;2.18;93.70
71476;BME280;59286;59.274;17.974;2023-04-07T07:53:52;102426.00;;;2.22;93.84
71476;BME280;59286;59.274;17.974;2023-04-07T07:56:17;102425.78;;;2.23;93.04
71476;BME280;59286;59.274;17.974;2023-04-07T07:58:43;102426.81;;;2.29;93.72
71476;BME280;59286;59.274;17.974;2023-04-07T08:01:08;102420.03;;;2.28;92.99
71476;BME280;59286;59.274;17.974;2023-04-07T08:03:33;102422.63;;;2.28;93.26
71476;BME280;59286;59.274;17.974;2023-04-07T08:05:59;102426.81;;;2.29;93.08
71476;BME280;59286;59.274;17.974;2023-04-07T08:08:25;102434.56;;;2.29;92.44
71476;BME280;59286;59.274;17.974;2023-04-07T08:10:50;102441.78;;;2.40;93.18
71476;BME280;59286;59.274;17.974;2023-04-07T08:13:15;102424.19;;;2.22;92.23
71476;BME280;59286;59.274;17.974;2023-04-07T08:15:41;102445.13;;;2.34;92.74
71476;BME280;59286;59.274;17.974;2023-04-07T08:18:06;102449.94;;;2.43;92.93
71476;BME280;59286;59.274;17.974;2023-04-07T08:20:32;102440.00;;;2.40;92.35
71476;BME280;59286;59.274;17.974;2023-04-07T08:22:58;102457.09;;;2.41;92.12
71476;BME280;59286;59.274;17.974;2023-04-07T08:25:24;102451.31;;;2.33;92.07
71476;BME280;59286;59.274;17.974;2023-04-07T08:27:49;102438.97;;;2.41;92.08
71476;BME280;59286;59.274;17.974;2023-04-07T08:30:15;102451.91;;;2.41;92.12
71476;BME280;59286;59.274;17.974;2023-04-07T08:32:42;102453.09;;;2.39;91.52
71476;BME280;59286;59.274;17.974;2023-04-07T08:35:08;102457.13;;;2.48;92.27
71476;BME280;59286;59.274;17.974;2023-04-07T08:37:34;102459.16;;;2.59;91.76
71476;BME280;59286;59.274;17.974;2023-04-07T08:40:01;102460.72;;;2.60;92.03
71476;BME280;59286;59.274;17.974;2023-04-07T08:42:30;102451.56;;;2.51;91.31
71476;BME280;59286;59.274;17.974;2023-04-07T08:44:57;102455.72;;;2.52;91.67
71476;BME280;59286;59.274;17.974;2023-04-07T08:47:24;102457.53;;;2.51;91.69
71476;BME280;59286;59.274;17.974;2023-04-07T08:49:52;102451.94;;;2.48;91.47
71476;BME280;59286;59.274;17.974;2023-04-07T08:52:21;102449.16;;;2.56;91.39
71476;BME280;59286;59.274;17.974;2023-04-07T08:54:48;102450.78;;;2.57;91.54
71476;BME280;59286;59.274;17.974;2023-04-07T08:57:14;102452.19;;;2.66;91.32
71476;BME280;59286;59.274;17.974;2023-04-07T08:59:41;102452.78;;;2.68;91.29
71476;BME280;59286;59.274;17.974;2023-04-07T09:02:09;102461.97;;;2.77;91.01
71476;BME280;59286;59.274;17.974;2023-04-07T09:04:35;102456.34;;;2.67;90.65
71476;BME280;59286;59.274;17.974;2023-04-07T09:07:00;102456.19;;;2.68;90.29
71476;BME280;59286;59.274;17.974;2023-04-07T09:09:26;102456.75;;;2.57;90.98
71476;BME280;59286;59.274;17.974;2023-04-07T09:11:51;102460.31;;;2.56;91.25
71476;BME280;59286;59.274;17.974;2023-04-07T09:14:17;102455.75;;;2.58;91.16
71476;BME280;59286;59.274;17.974;2023-04-07T09:16:45;102462.38;;;2.74;90.54
71476;BME280;59286;59.274;17.974;2023-04-07T09:19:11;102456.00;;;2.83;90.47
71476;BME280;59286;59.274;17.974;2023-04-07T09:21:47;102457.00;;;2.95;90.12
71476;BME280;59286;59.274;17.974;2023-04-07T09:24:21;102463.00;;;2.95;89.30
71476;BME280;59286;59.274;17.974;2023-04-07T09:26:47;102465.56;;;2.82;89.88
71476;BME280;59286;59.274;17.974;2023-04-07T09:29:18;102459.19;;;2.78;89.76
71476;BME280;59286;59.274;17.974;2023-04-07T09:31:49;102470.34;;;2.79;90.53
71476;BME280;59286;59.274;17.974;2023-04-07T09:34:30;102465.97;;;2.79;90.34
71476;BME280;59286;59.274;17.974;2023-04-07T09:36:56;102465.34;;;2.84;90.26
71476;BME280;59286;59.274;17.974;2023-04-07T09:39:23;102465.59;;;2.89;89.74
71476;BME280;59286;59.274;17.974;2023-04-07T09:41:49;102468.16;;;2.95;90.11
71476;BME280;59286;59.274;17.974;2023-04-07T09:44:16;102473.16;;;3.10;89.76
71476;BME280;59286;59.274;17.974;2023-04-07T09:49:18;102479.13;;;3.04;88.68
71476;BME280;59286;59.274;17.974;2023-04-07T09:52:01;102483.13;;;3.07;89.01
71476;BME280;59286;59.274;17.974;2023-04-07T09:54:37;102474.75;;;3.05;89.30
71476;BME280;59286;59.274;17.974;2023-04-07T09:57:04;102479.34;;;2.96;89.41
71476;BME280;59286;59.274;17.974;2023-04-07T09:59:31;102479.53;;;3.01;89.05
71476;BME280;59286;59.274;17.974;2023-04-07T10:01:57;102480.50;;;2.93;89.36
71476;BME280;59286;59.274;17.974;2023-04-07T10:04:26;102491.50;;;3.02;88.86
71476;BME280;59286;59.274;17.974;2023-04-07T10:06:52;102483.13;;;3.07;88.32
71476;BME280;59286;59.274;17.974;2023-04-07T10:09:19;102482.13;;;3.01;88.69
71476;BME280;59286;59.274;17.974;2023-04-07T10:11:44;102485.50;;;3.08;89.23
71476;BME280;59286;59.274;17.974;2023-04-07T10:14:11;102490.31;;;3.11;88.49
71476;BME280;59286;59.274;17.974;2023-04-07T10:16:37;102493.88;;;3.10;88.21
71476;BME280;59286;59.274;17.974;2023-04-07T10:19:03;102490.72;;;3.15;88.36
71476;BME280;59286;59.274;17.974;2023-04-07T10:21:31;102484.94;;;3.26;88.47
71476;BME280;59286;59.274;17.974;2023-04-07T10:27:03;102483.53;;;3.36;87.10
71476;BME280;59286;59.274;17.974;2023-04-07T10:29:38;102486.91;;;3.30;87.40
71476;BME280;59286;59.274;17.974;2023-04-07T10:32:04;102494.69;;;3.30;88.08
71476;BME280;59286;59.274;17.974;2023-04-07T10:37:15;102484.31;;;3.30;87.59
71476;BME280;59286;59.274;17.974;2023-04-07T10:39:45;102480.75;;;3.18;86.98
71476;BME280;59286;59.274;17.974;2023-04-07T10:45:06;102483.53;;;3.17;87.11
71476;BME280;59286;59.274;17.974;2023-04-07T10:47:32;102488.72;;;3.23;87.80
71476;BME280;59286;59.274;17.974;2023-04-07T10:50:14;102496.28;;;3.31;86.78
71476;BME280;59286;59.274;17.974;2023-04-07T10:52:39;102488.72;;;3.23;86.55
71476;BME280;59286;59.274;17.974;2023-04-07T10:55:31;102505.66;;;3.39;87.28
71476;BME280;59286;59.274;17.974;2023-04-07T10:58:29;102503.47;;;3.42;86.63
71476;BME280;59286;59.274;17.974;2023-04-07T11:03:51;102500.28;;;3.47;86.24
71476;BME280;59286;59.274;17.974;2023-04-07T11:06:16;102492.69;;;3.32;86.52
71476;BME280;59286;59.274;17.974;2023-04-07T11:08:44;102493.28;;;3.34;86.92
71476;BME280;59286;59.274;17.974;2023-04-07T11:11:12;102500.47;;;3.32;86.99
71476;BME280;59286;59.274;17.974;2023-04-07T11:13:45;102503.88;;;3.39;87.01
71476;BME280;59286;59.274;17.974;2023-04-07T11:16:11;102502.69;;;3.48;86.76
71476;BME280;59286;59.274;17.974;2023-04-07T11:18:37;102501.84;;;3.41;86.21
71476;BME280;59286;59.274;17.974;2023-04-07T11:21:04;102502.25;;;3.38;86.35
71476;BME280;59286;59.274;17.974;2023-04-07T11:23:45;102512.44;;;3.53;85.73
71476;BME280;59286;59.274;17.974;2023-04-07T11:26:12;102510.25;;;3.50;85.36
71476;BME280;59286;59.274;17.974;2023-04-07T11:28:51;102510.03;;;3.51;86.16
71476;BME280;59286;59.274;17.974;2023-04-07T11:31:30;102513.22;;;3.53;85.72
71476;BME280;59286;59.274;17.974;2023-04-07T11:34:02;102507.03;;;3.61;85.76
71476;BME280;59286;59.274;17.974;2023-04-07T11:36:39;102501.84;;;3.61;85.54
71476;BME280;59286;59.274;17.974;2023-04-07T11:39:17;102504.84;;;3.64;84.80
71476;BME280;59286;59.274;17.974;2023-04-07T11:41:47;102505.84;;;3.63;85.05
71476;BME280;59286;59.274;17.974;2023-04-07T11:44:13;102502.66;;;3.61;85.50
71476;BME280;59286;59.274;17.974;2023-04-07T11:46:54;102503.03;;;3.71;85.58
71476;BME280;59286;59.274;17.974;2023-04-07T11:49:20;102512.00;;;3.88;84.87
71476;BME280;59286;59.274;17.974;2023-04-07T11:51:47;102502.22;;;3.97;84.27
71476;BME280;59286;59.274;17.974;2023-04-07T11:54:13;102514.34;;;4.10;84.00
71476;BME280;59286;59.274;17.974;2023-04-07T11:56:46;102508.94;;;4.11;83.14
71476;BME280;59286;59.274;17.974;2023-04-07T12:01:45;102515.78;;;3.92;83.49
71476;BME280;59286;59.274;17.974;2023-04-07T12:04:12;102508.59;;;3.94;83.94
71476;BME280;59286;59.274;17.974;2023-04-07T12:06:38;102510.59;;;3.92;83.59
71476;BME280;59286;59.274;17.974;2023-04-07T12:09:06;102516.56;;;4.00;83.55
71476;BME280;59286;59.274;17.974;2023-04-07T12:11:33;102518.97;;;3.94;83.88
71476;BME280;59286;59.274;17.974;2023-04-07T12:13:59;102519.78;;;3.95;82.92
71476;BME280;59286;59.274;17.974;2023-04-07T12:16:25;102519.78;;;3.95;83.03
71476;BME280;59286;59.274;17.974;2023-04-07T12:18:50;102523.34;;;4.01;82.88
71476;BME280;59286;59.274;17.974;2023-04-07T12:21:19;102509.00;;;3.91;81.93
71476;BME280;59286;59.274;17.974;2023-04-07T12:23:45;102511.78;;;3.97;82.80
71476;BME280;59286;59.274;17.974;2023-04-07T12:26:11;102513.38;;;3.97;82.80
71476;BME280;59286;59.274;17.974;2023-04-07T12:28:37;102507.78;;;4.01;82.57
71476;BME280;59286;59.274;17.974;2023-04-07T12:31:03;102517.72;;;4.17;83.00
71476;BME280;59286;59.274;17.974;2023-04-07T12:33:28;102517.91;;;4.09;82.09
71476;BME280;59286;59.274;17.974;2023-04-07T12:35:54;102511.31;;;4.13;82.40
71476;BME280;59286;59.274;17.974;2023-04-07T12:38:20;102501.31;;;4.23;82.33
71476;BME280;59286;59.274;17.974;2023-04-07T12:40:45;102510.31;;;4.20;82.31
71476;BME280;59286;59.274;17.974;2023-04-07T12:43:11;102499.34;;;4.18;82.07
71476;BME280;59286;59.274;17.974;2023-04-07T12:45:36;102504.94;;;4.15;82.34
71476;BME280;59286;59.274;17.974;2023-04-07T12:48:02;102506.53;;;4.16;82.27
71476;BME280;59286;59.274;17.974;2023-04-07T12:50:28;102502.13;;;4.17;81.81
71476;BME280;59286;59.274;17.974;2023-04-07T12:52:56;102498.53;;;4.24;82.52
71476;BME280;59286;59.274;17.974;2023-04-07T12:55:23;102497.28;;;4.33;82.34
71476;BME280;59286;59.274;17.974;2023-04-07T12:57:48;102495.28;;;4.35;81.24
71476;BME280;59286;59.274;17.974;2023-04-07T13:00:13;102495.28;;;4.35;81.87
71476;BME280;59286;59.274;17.974;2023-04-07T13:02:39;102491.88;;;4.35;81.62
71476;BME280;59286;59.274;17.974;2023-04-07T13:05:06;102498.03;;;4.47;81.27
71476;BME280;59286;59.274;17.974;2023-04-07T13:07:31;102486.84;;;4.46;81.56